Terminal Aerodrome Forecast
Issued by NWS

Home | Current Version | Previous Version | Text Only | Print | Product List | Glossary On
Versions: 1 2 3 4 5 6 7 8 9 10 11 12 13 14 15 16 17 18 19 20 21 22 23 24 25 26 27 28 29
000
FTUS41 KOKX 021120
TAFTEB
TAF
KTEB 021120Z 0212/0312 03006KT P6SM SCT005 OVC011
      TEMPO 0212/0215 2SM -RA BR OVC005
     FM021500 04010KT P6SM OVC015
      TEMPO 0215/0219 6SM -RA
     FM030100 04007KT P6SM OVC015
     FM030700 04006KT P6SM SCT015 OVC030=

USA.gov is the U.S. government's official web portal to all federal, state and local government web resources and services.